Time;durP1;ratioP1;P1;durP2;ratioP2;P2;SDS_P1;SDS_P2;PMS_P1;PMS_P2;Temp;Humidity;BMP_temperature;BMP_pressure;BME280_temperature;BME280_humidity;BME280_pressure;Samples;Min_cycle;Max_cycle;Signal;HPM_P1;HPM_P2
2022/06/15 00:00:44;;;;;;;3.35;0.80;;;14.70;92.20;;;;;;5073668;28;20027;-79
2022/06/15 00:03:12;;;;;;;2.67;0.73;;;14.60;92.40;;;;;;5058423;28;20930;-79
2022/06/15 00:05:42;;;;;;;1.92;0.70;;;14.60;92.60;;;;;;5057089;28;20040;-78
2022/06/15 00:08:10;;;;;;;2.80;0.75;;;14.50;92.80;;;;;;5058602;28;20051;-79
2022/06/15 00:10:37;;;;;;;3.85;0.80;;;14.50;93.10;;;;;;5063089;28;20056;-79
2022/06/15 00:13:03;;;;;;;4.97;1.05;;;14.50;93.50;;;;;;5048278;28;20040;-79
2022/06/15 00:15:30;;;;;;;2.42;0.80;;;14.40;93.70;;;;;;5078563;28;20043;-78
2022/06/15 00:17:56;;;;;;;4.47;0.90;;;14.50;94.10;;;;;;5062903;28;20028;-79
2022/06/15 00:20:23;;;;;;;3.35;0.73;;;14.40;94.50;;;;;;5058073;28;20035;-79
2022/06/15 00:22:49;;;;;;;3.75;1.00;;;14.40;94.60;;;;;;5049233;28;20059;-79
2022/06/15 00:25:16;;;;;;;3.17;0.85;;;14.40;94.90;;;;;;5063989;28;20379;-79
2022/06/15 00:27:42;;;;;;;3.58;0.93;;;14.40;95.10;;;;;;5060599;28;20036;-79
2022/06/15 00:30:10;;;;;;;3.17;1.20;;;14.40;95.30;;;;;;5075084;28;20080;-79
2022/06/15 00:32:37;;;;;;;2.80;0.90;;;14.30;95.60;;;;;;5044487;28;20039;-79
2022/06/15 00:35:04;;;;;;;2.90;0.90;;;14.30;95.70;;;;;;5060422;28;20028;-79
2022/06/15 00:37:31;;;;;;;2.67;1.10;;;14.20;96.10;;;;;;5058849;28;20035;-79
2022/06/15 00:39:57;;;;;;;5.57;1.20;;;14.20;96.40;;;;;;5057965;28;20035;-79
2022/06/15 00:42:28;;;;;;;3.45;1.02;;;14.20;96.70;;;;;;5079731;28;20020;-79
2022/06/15 00:44:55;;;;;;;2.53;0.80;;;14.10;97.00;;;;;;5044485;28;20032;-79
2022/06/15 00:47:23;;;;;;;3.75;0.85;;;14.10;97.20;;;;;;5046354;28;20029;-79
2022/06/15 00:50:14;;;;;;;4.57;1.10;;;14.10;97.40;;;;;;5062478;28;20032;-78
2022/06/15 00:52:50;;;;;;;4.82;1.10;;;14.10;98.00;;;;;;5081295;28;20040;-79
2022/06/15 00:55:22;;;;;;;3.63;0.80;;;14.00;98.20;;;;;;5043541;28;20028;-80
2022/06/15 00:57:50;;;;;;;4.35;1.20;;;14.00;98.40;;;;;;5077768;28;20036;-79
2022/06/15 01:00:17;;;;;;;7.20;1.58;;;14.00;98.60;;;;;;5074729;28;20043;-79
2022/06/15 01:02:44;;;;;;;5.15;1.27;;;13.90;99.00;;;;;;5061540;28;20032;-79
2022/06/15 01:05:26;;;;;;;5.47;1.25;;;13.90;99.30;;;;;;5076965;28;20475;-79
2022/06/15 01:08:13;;;;;;;4.10;1.20;;;13.90;99.80;;;;;;5077576;28;20039;-79
2022/06/15 01:10:48;;;;;;;3.83;1.20;;;13.80;99.90;;;;;;5073846;28;20380;-79
2022/06/15 01:13:26;;;;;;;3.00;1.00;;;13.80;99.90;;;;;;5073892;28;20514;-79
2022/06/15 01:16:27;;;;;;;6.75;1.30;;;13.80;99.90;;;;;;5063220;28;20035;-79
2022/06/15 01:19:19;;;;;;;2.58;0.90;;;13.80;99.90;;;;;;5076995;28;20040;-79
2022/06/15 01:22:12;;;;;;;3.90;0.85;;;13.70;99.90;;;;;;5073383;28;20383;-79
2022/06/15 01:24:52;;;;;;;3.95;0.98;;;13.70;99.90;;;;;;5076264;28;20513;-79
2022/06/15 01:27:39;;;;;;;2.92;1.17;;;13.60;99.90;;;;;;5059056;28;20029;-77
2022/06/15 01:30:18;;;;;;;3.88;0.80;;;13.60;99.90;;;;;;5070609;28;20181;-77
2022/06/15 01:33:06;;;;;;;3.83;0.68;;;13.60;99.90;;;;;;5076613;28;20047;-79
2022/06/15 01:35:55;;;;;;;3.28;0.70;;;13.60;99.90;;;;;;5056330;28;20044;-78
2022/06/15 01:38:46;;;;;;;3.25;1.20;;;13.50;99.90;;;;;;5081142;28;20020;-80
2022/06/15 01:41:27;;;;;;;6.15;1.00;;;13.50;99.90;;;;;;5037779;28;20024;-80
2022/06/15 01:44:08;;;;;;;3.78;1.30;;;13.50;99.90;;;;;;5078170;28;20402;-80
2022/06/15 01:46:39;;;;;;;3.53;1.00;;;13.40;99.90;;;;;;5063876;28;20372;-80
2022/06/15 01:49:08;;;;;;;5.35;1.27;;;13.40;99.90;;;;;;5063103;28;20032;-78
2022/06/15 01:51:41;;;;;;;3.75;1.10;;;13.40;99.90;;;;;;5057729;28;20036;-78
2022/06/15 01:54:14;;;;;;;4.57;1.20;;;13.30;99.90;;;;;;5078231;28;20025;-78
2022/06/15 01:56:45;;;;;;;3.55;0.77;;;13.30;99.90;;;;;;5085669;28;20028;-78
2022/06/15 01:59:22;;;;;;;3.92;0.98;;;13.30;99.90;;;;;;5083762;28;20036;-77
2022/06/15 02:01:58;;;;;;;4.80;1.45;;;13.20;99.90;;;;;;5068191;28;20024;-77
2022/06/15 02:04:35;;;;;;;2.55;0.80;;;13.20;99.90;;;;;;5062929;28;20040;-77
2022/06/15 02:07:25;;;;;;;3.55;1.00;;;13.20;99.90;;;;;;5078038;28;20039;-77
2022/06/15 02:10:05;;;;;;;6.72;1.25;;;13.20;99.90;;;;;;5075975;28;20036;-77
2022/06/15 02:12:43;;;;;;;4.75;0.88;;;13.10;99.90;;;;;;5066445;28;20027;-77
2022/06/15 02:15:14;;;;;;;4.25;0.80;;;13.10;99.90;;;;;;5051451;28;20047;-77
2022/06/15 02:17:48;;;;;;;3.90;1.00;;;13.10;99.90;;;;;;5047255;28;20094;-76
2022/06/15 02:20:31;;;;;;;2.88;0.80;;;13.10;99.90;;;;;;5074585;28;20032;-78
2022/06/15 02:23:00;;;;;;;;;;;13.00;99.90;;;;;;5079347;28;20387;-78
2022/06/15 02:25:33;;;;;;;4.35;0.80;;;13.00;99.90;;;;;;5063097;28;19919;-80
2022/06/15 02:28:02;;;;;;;3.60;0.75;;;13.00;99.90;;;;;;5065852;28;20039;-78
2022/06/15 02:30:30;;;;;;;3.35;0.90;;;12.90;99.90;;;;;;5076441;28;20033;-77
2022/06/15 02:33:26;;;;;;;2.97;0.90;;;13.00;99.90;;;;;;5064371;28;20035;-78
2022/06/15 02:35:55;;;;;;;;;;;12.90;99.90;;;;;;5083336;28;20491;-78
2022/06/15 02:38:22;;;;;;;3.80;0.80;;;12.90;99.90;;;;;;5047602;28;19942;-78
2022/06/15 02:40:49;;;;;;;3.70;1.08;;;12.80;99.90;;;;;;5076217;28;20032;-78
2022/06/15 02:43:22;;;;;;;3.92;1.10;;;12.90;99.90;;;;;;5079564;28;20028;-77
2022/06/15 02:45:50;;;;;;;3.35;1.02;;;12.90;99.90;;;;;;5062594;28;20024;-78
2022/06/15 02:48:22;;;;;;;5.38;0.93;;;12.80;99.90;;;;;;5067999;28;20055;-78
2022/06/15 02:51:10;;;;;;;3.35;1.00;;;12.80;99.90;;;;;;5075580;28;20024;-78
2022/06/15 02:53:41;;;;;;;3.47;0.90;;;12.80;99.90;;;;;;5078509;28;20034;-78
2022/06/15 02:56:12;;;;;;;4.63;0.93;;;12.80;99.90;;;;;;5065264;28;20033;-78
2022/06/15 02:58:42;;;;;;;3.38;0.90;;;12.80;99.90;;;;;;5082312;28;20032;-79
2022/06/15 03:01:09;;;;;;;4.95;0.77;;;12.80;99.90;;;;;;5064422;28;20031;-78
2022/06/15 03:03:39;;;;;;;2.58;0.93;;;12.70;99.90;;;;;;5066676;28;20049;-78
2022/06/15 03:06:21;;;;;;;3.75;0.82;;;12.70;99.90;;;;;;5065430;28;20036;-78
2022/06/15 03:08:50;;;;;;;5.03;1.00;;;12.70;99.90;;;;;;5066594;28;20039;-79
2022/06/15 03:11:33;;;;;;;4.57;1.30;;;12.70;99.90;;;;;;5043090;28;20040;-78
2022/06/15 03:14:08;;;;;;;3.20;0.70;;;12.60;99.90;;;;;;5059164;28;20508;-78
2022/06/15 03:16:35;;;;;;;4.75;0.80;;;12.70;99.90;;;;;;5080008;28;20039;-77
2022/06/15 03:19:01;;;;;;;4.82;1.27;;;12.60;99.90;;;;;;5061423;28;20032;-77
2022/06/15 03:21:28;;;;;;;3.33;0.90;;;12.70;99.90;;;;;;5043160;28;20717;-78
2022/06/15 03:23:55;;;;;;;4.03;0.80;;;12.60;99.90;;;;;;5045400;28;20039;-78
2022/06/15 03:26:23;;;;;;;6.28;1.02;;;12.60;99.90;;;;;;5059874;28;20040;-78
2022/06/15 03:28:50;;;;;;;3.35;0.90;;;12.60;99.90;;;;;;5059966;28;20028;-78
2022/06/15 03:31:19;;;;;;;4.65;0.90;;;12.60;99.90;;;;;;5057280;28;20043;-78
2022/06/15 03:33:46;;;;;;;3.60;1.27;;;12.60;99.90;;;;;;5077822;28;20030;-78
2022/06/15 03:36:17;;;;;;;3.65;0.80;;;12.60;99.90;;;;;;5047753;28;20067;-78
2022/06/15 03:38:45;;;;;;;5.03;0.80;;;12.60;99.90;;;;;;5060745;28;20028;-78
2022/06/15 03:41:19;;;;;;;3.08;0.70;;;12.60;99.90;;;;;;5058385;28;20377;-78
2022/06/15 03:43:47;;;;;;;3.25;0.80;;;12.60;99.90;;;;;;5073498;28;20047;-78
2022/06/15 03:46:15;;;;;;;4.32;0.82;;;12.60;99.90;;;;;;5047821;28;20040;-78
2022/06/15 03:48:43;;;;;;;3.80;1.00;;;12.60;99.90;;;;;;5065410;28;20028;-79
2022/06/15 03:51:11;;;;;;;4.00;1.20;;;12.60;99.90;;;;;;5057846;28;20036;-79
2022/06/15 03:53:49;;;;;;;6.03;1.25;;;12.60;99.90;;;;;;5064445;28;20039;-78
2022/06/15 03:56:16;;;;;;;2.53;0.80;;;12.60;99.90;;;;;;5060281;28;20038;-79
2022/06/15 03:58:43;;;;;;;5.07;1.10;;;12.70;99.90;;;;;;5046731;28;20379;-79
2022/06/15 04:01:10;;;;;;;6.97;1.13;;;12.70;99.90;;;;;;5075123;28;20055;-78
2022/06/15 04:03:36;;;;;;;2.80;0.73;;;12.70;99.90;;;;;;5063167;28;20494;-79
2022/06/15 04:06:14;;;;;;;2.83;0.90;;;12.70;99.90;;;;;;5065432;28;20031;-79
2022/06/15 04:08:45;;;;;;;4.32;1.00;;;12.80;99.90;;;;;;5047294;28;20028;-78
2022/06/15 04:14:21;;;;;;;4.78;1.17;;;12.90;99.90;;;;;;5076334;28;20491;-78
2022/06/15 04:16:54;;;;;;;3.35;0.88;;;12.90;99.90;;;;;;5048111;28;20040;-78
2022/06/15 04:19:29;;;;;;;4.47;0.90;;;13.00;99.90;;;;;;5035931;28;20499;-79
2022/06/15 04:21:58;;;;;;;3.65;1.00;;;13.00;99.90;;;;;;5057319;28;20039;-78
2022/06/15 04:24:28;;;;;;;3.60;0.80;;;13.10;99.90;;;;;;5063055;28;20047;-78
2022/06/15 04:26:58;;;;;;;5.85;1.08;;;13.20;99.90;;;;;;5077076;28;20028;-78
2022/06/15 04:29:27;;;;;;;3.97;0.88;;;13.30;99.90;;;;;;5058279;28;20053;-78
2022/06/15 04:31:55;;;;;;;3.60;0.70;;;13.40;99.90;;;;;;5074516;28;20035;-82
2022/06/15 04:34:23;;;;;;;5.80;1.20;;;13.50;99.90;;;;;;5059610;28;20040;-78
2022/06/15 04:36:51;;;;;;;4.60;0.88;;;13.60;99.90;;;;;;5094876;28;20439;-80
2022/06/15 04:39:18;;;;;;;9.60;4.20;;;13.80;99.90;;;;;;5075651;28;20526;-78
2022/06/15 04:41:46;;;;;;;7.10;3.90;;;13.90;99.90;;;;;;5076278;28;20032;-78
2022/06/15 04:44:13;;;;;;;4.10;1.48;;;14.00;99.90;;;;;;5058946;28;20505;-78
2022/06/15 04:46:43;;;;;;;5.53;2.03;;;14.10;99.90;;;;;;5055393;28;20365;-78
2022/06/15 04:49:11;;;;;;;10.43;4.72;;;14.30;99.90;;;;;;5038056;28;20032;-78
2022/06/15 04:51:51;;;;;;;5.18;2.10;;;14.40;99.90;;;;;;5059954;28;20043;-79
2022/06/15 04:54:18;;;;;;;4.47;1.08;;;14.60;99.90;;;;;;5064859;28;20028;-82
2022/06/15 04:56:46;;;;;;;4.13;1.00;;;14.80;99.90;;;;;;5059859;28;20036;-80
2022/06/15 04:59:15;;;;;;;4.43;1.00;;;14.90;99.90;;;;;;5043695;28;20046;-80
2022/06/15 05:01:43;;;;;;;2.88;0.90;;;15.10;99.90;;;;;;5059473;28;20033;-79
2022/06/15 05:04:14;;;;;;;4.47;0.95;;;15.20;99.90;;;;;;5063585;28;20051;-80
2022/06/15 05:06:42;;;;;;;7.28;2.20;;;15.40;99.90;;;;;;5063349;28;20040;-80
2022/06/15 05:09:12;;;;;;;8.02;2.85;;;15.60;99.90;;;;;;5060965;28;20028;-80
2022/06/15 05:11:39;;;;;;;5.40;1.55;;;15.70;99.90;;;;;;5058739;28;20023;-79
2022/06/15 05:14:06;;;;;;;5.45;1.00;;;15.90;99.90;;;;;;5078236;28;20024;-79
2022/06/15 05:16:38;;;;;;;4.82;1.17;;;16.00;99.90;;;;;;5033985;28;20372;-80
2022/06/15 05:19:10;;;;;;;5.70;0.82;;;16.10;99.90;;;;;;5030777;28;20044;-79
2022/06/15 05:21:42;;;;;;;5.72;0.75;;;16.20;99.90;;;;;;5042767;28;20386;-79
2022/06/15 05:24:10;;;;;;;3.63;0.80;;;16.40;99.90;;;;;;5057771;28;20032;-78
2022/06/15 05:27:06;;;;;;;13.02;6.63;;;16.50;99.90;;;;;;5069103;28;20052;-79
2022/06/15 05:29:35;;;;;;;8.65;3.80;;;16.70;99.90;;;;;;5056779;28;21441;-78
2022/06/15 05:32:10;;;;;;;7.60;2.58;;;16.90;99.90;;;;;;5068067;28;20029;-81
2022/06/15 05:34:37;;;;;;;4.13;1.10;;;17.00;99.90;;;;;;5061823;28;20039;-78
2022/06/15 05:37:05;;;;;;;5.57;0.88;;;17.10;99.90;;;;;;5042204;28;20059;-79
2022/06/15 05:39:35;;;;;;;5.82;1.15;;;17.30;99.90;;;;;;5055531;28;20029;-78
2022/06/15 05:42:04;;;;;;;6.97;0.88;;;17.40;99.90;;;;;;5026991;28;20036;-78
2022/06/15 05:47:10;;;;;;;7.10;3.05;;;17.70;99.90;;;;;;5045212;28;20043;-78
2022/06/15 05:49:42;;;;;;;6.15;2.05;;;17.80;99.90;;;;;;5062383;28;20039;-78
2022/06/15 05:52:10;;;;;;;4.47;0.90;;;18.00;99.90;;;;;;5056128;28;20016;-78
2022/06/15 05:54:40;;;;;;;6.22;1.40;;;18.10;99.90;;;;;;5060038;28;20045;-78
2022/06/15 05:57:11;;;;;;;2.72;0.70;;;18.30;99.90;;;;;;5043091;28;20387;-78
2022/06/15 05:59:38;;;;;;;4.65;0.77;;;18.50;99.70;;;;;;5055576;28;20032;-78
2022/06/15 06:02:04;;;;;;;4.55;0.95;;;18.80;98.80;;;;;;5074685;28;20029;-83
2022/06/15 06:04:31;;;;;;;3.25;0.80;;;19.10;97.80;;;;;;5044146;28;20035;-78
2022/06/15 06:06:57;;;;;;;3.45;0.65;;;19.40;97.30;;;;;;5060671;28;20028;-78
2022/06/15 06:09:23;;;;;;;4.00;0.73;;;19.60;96.80;;;;;;5075121;28;20028;-78
2022/06/15 06:11:50;;;;;;;2.85;0.75;;;19.80;96.30;;;;;;5038504;28;20039;-78
2022/06/15 06:14:16;;;;;;;6.88;1.35;;;19.90;96.10;;;;;;5060917;28;20031;-78
2022/06/15 06:16:42;;;;;;;4.80;1.00;;;19.90;95.70;;;;;;5056230;28;20028;-78
2022/06/15 06:19:09;;;;;;;4.45;0.82;;;20.00;95.10;;;;;;5060401;28;20051;-78
2022/06/15 06:21:35;;;;;;;6.25;1.08;;;20.10;94.80;;;;;;5055313;28;20039;-78
2022/06/15 06:24:02;;;;;;;3.15;0.60;;;20.30;94.60;;;;;;5045882;28;20375;-78
2022/06/15 06:26:33;;;;;;;4.90;0.60;;;20.70;94.30;;;;;;5062098;28;20080;-79
2022/06/15 06:29:00;;;;;;;3.45;0.80;;;21.20;93.70;;;;;;5074040;28;20024;-78
2022/06/15 06:31:28;;;;;;;6.53;1.30;;;21.50;92.60;;;;;;5037524;28;20580;-78
2022/06/15 06:33:54;;;;;;;3.88;0.68;;;21.60;91.60;;;;;;5072374;28;20467;-78
2022/06/15 06:36:36;;;;;;;5.47;0.80;;;21.50;91.30;;;;;;5038438;28;20044;-78
2022/06/15 06:39:08;;;;;;;2.67;0.57;;;21.50;91.00;;;;;;5073274;28;20020;-78
2022/06/15 06:41:35;;;;;;;3.88;0.60;;;21.40;91.20;;;;;;5055378;28;20016;-78
2022/06/15 06:44:07;;;;;;;2.55;0.50;;;21.50;90.90;;;;;;5074831;28;20024;-81
2022/06/15 06:46:35;;;;;;;3.53;0.80;;;21.50;90.80;;;;;;5074462;28;20024;-80
2022/06/15 06:49:05;;;;;;;2.55;0.70;;;21.40;90.30;;;;;;5060483;28;20514;-80
2022/06/15 06:51:33;;;;;;;3.72;0.70;;;21.40;90.30;;;;;;5053797;28;20028;-80
2022/06/15 06:53:59;;;;;;;3.55;0.60;;;21.40;90.20;;;;;;5058738;28;20040;-81
2022/06/15 06:56:26;;;;;;;4.20;0.70;;;21.50;90.10;;;;;;5047870;28;20032;-80
2022/06/15 06:58:54;;;;;;;4.30;0.68;;;21.60;90.10;;;;;;5046254;28;20040;-80
2022/06/15 07:01:20;;;;;;;2.40;0.50;;;21.70;89.70;;;;;;5036615;28;20512;-78
2022/06/15 07:03:47;;;;;;;1.95;0.70;;;21.80;88.40;;;;;;5042423;28;20051;-79
2022/06/15 07:06:14;;;;;;;4.03;0.65;;;21.90;87.40;;;;;;5068343;28;20052;-78
2022/06/15 07:08:40;;;;;;;3.35;0.60;;;21.80;85.90;;;;;;5056352;28;20039;-78
2022/06/15 07:11:09;;;;;;;3.97;0.60;;;21.70;85.70;;;;;;5072421;28;20025;-79
2022/06/15 07:13:36;;;;;;;3.58;0.70;;;21.80;85.80;;;;;;5073914;28;20024;-78
2022/06/15 07:16:07;;;;;;;4.40;0.70;;;21.80;85.20;;;;;;5074688;28;20045;-79
2022/06/15 07:18:34;;;;;;;3.25;0.60;;;22.00;85.20;;;;;;5055190;28;20067;-78
2022/06/15 07:21:06;;;;;;;3.80;0.82;;;22.10;85.50;;;;;;5092175;28;20442;-78
2022/06/15 07:23:34;;;;;;;2.40;0.68;;;22.30;84.90;;;;;;5072259;28;20391;-79
2022/06/15 07:26:07;;;;;;;3.95;0.60;;;22.50;84.20;;;;;;5060275;28;20032;-79
2022/06/15 07:28:34;;;;;;;4.13;0.60;;;22.70;83.30;;;;;;5072923;28;20016;-78
2022/06/15 07:31:01;;;;;;;3.60;0.50;;;22.80;82.20;;;;;;5034872;28;1117300;-79
2022/06/15 07:33:27;;;;;;;5.75;0.60;;;22.80;82.10;;;;;;5073079;28;20546;-79
2022/06/15 07:35:54;;;;;;;2.33;0.40;;;23.00;81.30;;;;;;5070631;28;20024;-79
2022/06/15 07:38:21;;;;;;;4.90;0.63;;;23.20;81.00;;;;;;5058305;28;21451;-79
2022/06/15 07:40:49;;;;;;;5.28;0.73;;;23.30;79.80;;;;;;5073775;28;20017;-79
2022/06/15 07:43:17;;;;;;;5.93;0.70;;;23.30;79.00;;;;;;5070766;28;20044;-79
2022/06/15 07:45:44;;;;;;;3.85;0.90;;;23.40;78.10;;;;;;5060097;28;20039;-79
2022/06/15 07:50:57;;;;;;;3.25;0.60;;;23.30;76.20;;;;;;5073591;28;20027;-79
2022/06/15 07:53:23;;;;;;;3.17;0.65;;;23.40;75.50;;;;;;5073121;28;20413;-79
2022/06/15 07:55:52;;;;;;;4.82;0.60;;;23.40;75.40;;;;;;5045409;28;20024;-79
2022/06/15 07:58:19;;;;;;;4.35;0.65;;;23.50;75.10;;;;;;5072273;28;20036;-79
2022/06/15 08:00:47;;;;;;;2.80;0.60;;;23.60;74.10;;;;;;5055663;28;20032;-79
2022/06/15 08:03:14;;;;;;;3.17;0.65;;;23.50;73.80;;;;;;5073780;28;20029;-78
2022/06/15 08:05:45;;;;;;;4.22;0.70;;;23.70;73.70;;;;;;5055472;28;20066;-79
2022/06/15 08:08:25;;;;;;;3.45;0.70;;;23.80;73.50;;;;;;5074745;28;20043;-83
2022/06/15 08:10:51;;;;;;;3.92;0.75;;;23.80;72.90;;;;;;5041126;28;21929;-79
2022/06/15 08:13:19;;;;;;;3.75;0.82;;;23.90;72.30;;;;;;5055622;28;20028;-79
2022/06/15 08:15:47;;;;;;;4.50;0.85;;;24.00;72.30;;;;;;5038827;28;20027;-79
2022/06/15 08:18:16;;;;;;;2.35;0.70;;;24.00;72.00;;;;;;5074882;28;20040;-78
2022/06/15 08:21:03;;;;;;;6.90;1.08;;;24.10;71.40;;;;;;5053885;28;20035;-79
2022/06/15 08:23:34;;;;;;;4.00;0.60;;;24.10;72.40;;;;;;5075584;28;20025;-79
2022/06/15 08:26:04;;;;;;;4.00;0.60;;;24.10;71.20;;;;;;5071834;28;20055;-79
2022/06/15 08:28:36;;;;;;;3.28;0.60;;;24.10;70.70;;;;;;5053950;28;20028;-79
2022/06/15 08:31:03;;;;;;;3.30;0.70;;;24.10;71.00;;;;;;5071292;28;20041;-79
2022/06/15 08:33:30;;;;;;;3.60;0.60;;;24.20;71.10;;;;;;5056139;28;20028;-79
2022/06/15 08:35:57;;;;;;;5.30;0.75;;;24.20;70.30;;;;;;5073009;28;20031;-79
2022/06/15 08:38:25;;;;;;;4.75;0.80;;;24.10;68.80;;;;;;5071934;28;20020;-78
2022/06/15 08:41:10;;;;;;;4.40;0.75;;;24.10;69.10;;;;;;5053729;28;20040;-79
2022/06/15 08:43:55;;;;;;;4.38;0.65;;;24.20;69.30;;;;;;5071252;28;20363;-79
2022/06/15 08:46:35;;;;;;;3.10;0.70;;;24.30;69.20;;;;;;5061340;28;20059;-79
2022/06/15 08:49:17;;;;;;;4.32;0.70;;;24.40;69.00;;;;;;5061340;28;20021;-80
2022/06/15 08:51:48;;;;;;;3.30;0.80;;;24.50;68.90;;;;;;5057312;28;20352;-79
2022/06/15 08:54:39;;;;;;;5.22;1.00;;;24.60;69.00;;;;;;5076817;28;20020;-79
2022/06/15 08:57:11;;;;;;;3.83;0.50;;;24.70;68.10;;;;;;5040279;28;20158;-80
2022/06/15 08:59:46;;;;;;;3.17;0.50;;;24.80;67.90;;;;;;5055798;28;20027;-79
2022/06/15 09:02:36;;;;;;;2.72;1.05;;;24.90;67.90;;;;;;5057213;28;20028;-80
2022/06/15 09:05:16;;;;;;;5.28;0.82;;;25.00;67.20;;;;;;5073939;28;20040;-79
2022/06/15 09:08:04;;;;;;;6.13;0.70;;;25.10;67.20;;;;;;5075033;28;20036;-79
2022/06/15 09:10:34;;;;;;;5.15;1.25;;;25.20;66.80;;;;;;5068840;28;20039;-79
2022/06/15 09:13:12;;;;;;;3.70;0.70;;;25.30;66.30;;;;;;5054735;28;20028;-80
2022/06/15 09:15:42;;;;;;;5.25;1.02;;;25.30;65.30;;;;;;5075159;28;20028;-80
2022/06/15 09:18:22;;;;;;;4.32;0.60;;;25.30;65.30;;;;;;5055133;28;20032;-79
2022/06/15 09:21:02;;;;;;;4.60;1.10;;;25.40;65.20;;;;;;5072088;28;20368;-84
2022/06/15 09:23:34;;;;;;;4.38;0.93;;;25.50;65.30;;;;;;5075775;28;20035;-80
2022/06/15 09:26:13;;;;;;;4.00;1.13;;;25.60;64.60;;;;;;5071516;28;20032;-80
2022/06/15 09:28:50;;;;;;;5.22;1.15;;;25.60;64.00;;;;;;5057414;28;20513;-80
2022/06/15 09:31:26;;;;;;;4.43;0.82;;;25.50;63.60;;;;;;5069075;28;20044;-80
2022/06/15 09:34:02;;;;;;;4.32;0.80;;;25.60;63.50;;;;;;5075496;28;20033;-79
2022/06/15 09:36:50;;;;;;;3.47;1.00;;;25.70;63.00;;;;;;5042919;28;20051;-81
2022/06/15 09:39:18;;;;;;;4.30;0.80;;;25.80;63.10;;;;;;5071918;28;20024;-80
2022/06/15 09:42:06;;;;;;;2.95;0.70;;;25.90;63.20;;;;;;5055054;28;22376;-80
2022/06/15 09:44:44;;;;;;;4.80;0.50;;;26.10;63.00;;;;;;5074065;28;20483;-79
2022/06/15 09:47:29;;;;;;;4.63;0.75;;;26.20;62.40;;;;;;5072965;28;20044;-80
2022/06/15 09:50:11;;;;;;;3.05;0.60;;;26.10;62.20;;;;;;5049280;28;20033;-80
2022/06/15 09:52:55;;;;;;;4.15;0.88;;;26.10;62.40;;;;;;5078469;28;20017;-79
2022/06/15 09:55:37;;;;;;;2.70;0.57;;;26.20;61.90;;;;;;5076354;28;20047;-80
2022/06/15 09:58:07;;;;;;;5.38;0.77;;;26.20;62.00;;;;;;5074267;28;20035;-80
2022/06/15 10:00:36;;;;;;;3.47;0.65;;;26.40;61.30;;;;;;5054609;28;20029;-80
2022/06/15 10:03:10;;;;;;;2.00;0.50;;;26.50;61.00;;;;;;5055815;28;20035;-80
2022/06/15 10:05:43;;;;;;;3.42;0.63;;;26.50;60.40;;;;;;5080221;28;20035;-80
2022/06/15 10:08:13;;;;;;;1.67;0.50;;;26.50;59.40;;;;;;5077817;28;20032;-80
2022/06/15 10:10:50;;;;;;;3.13;0.45;;;26.50;59.50;;;;;;5070374;28;20021;-80
2022/06/15 10:13:19;;;;;;;3.67;0.70;;;26.50;59.10;;;;;;5075071;28;20017;-79
2022/06/15 10:15:56;;;;;;;3.08;0.55;;;26.60;59.60;;;;;;5074194;28;20017;-79
2022/06/15 10:18:37;;;;;;;4.03;0.75;;;26.80;59.60;;;;;;5060728;28;20031;-79
2022/06/15 10:21:12;;;;;;;3.83;0.50;;;27.00;59.00;;;;;;5055231;28;20035;-79
2022/06/15 10:24:03;;;;;;;2.33;0.52;;;27.00;58.50;;;;;;5074366;28;20616;-80
2022/06/15 10:26:47;;;;;;;2.38;0.50;;;27.20;58.00;;;;;;5080763;28;20027;-80
2022/06/15 10:29:16;;;;;;;1.95;0.60;;;27.30;56.60;;;;;;5073239;28;20028;-79
2022/06/15 10:32:07;;;;;;;3.25;0.80;;;27.30;57.20;;;;;;5078611;28;20468;-80
2022/06/15 10:34:35;;;;;;;4.75;0.68;;;27.40;54.80;;;;;;5077346;28;20035;-81
2022/06/15 10:37:19;;;;;;;3.20;0.65;;;27.20;55.70;;;;;;5079939;28;20027;-80
2022/06/15 10:39:53;;;;;;;2.78;0.60;;;27.30;56.20;;;;;;5075033;28;20047;-80
2022/06/15 10:42:21;;;;;;;3.08;0.70;;;27.40;56.00;;;;;;5060348;28;20020;-81
2022/06/15 10:45:06;;;;;;;3.63;0.75;;;27.50;56.30;;;;;;5058772;28;20020;-80
2022/06/15 10:47:49;;;;;;;2.95;0.80;;;27.70;54.40;;;;;;5077178;28;20383;-81
2022/06/15 10:50:22;;;;;;;2.13;0.70;;;27.80;54.70;;;;;;5060758;28;20024;-81
2022/06/15 10:52:56;;;;;;;1.65;0.40;;;28.10;55.00;;;;;;5077361;28;20027;-81
2022/06/15 11:04:28;;;;;;;2.80;0.50;;;29.40;52.80;;;;;;5058503;28;20027;-77
2022/06/15 11:07:06;;;;;;;4.30;0.88;;;29.70;51.80;;;;;;5070723;28;20031;-77
2022/06/15 11:09:38;;;;;;;3.08;0.63;;;29.90;51.50;;;;;;5054168;28;20024;-77
2022/06/15 11:12:27;;;;;;;;;;;30.30;51.30;;;;;;5056213;28;20024;-77
2022/06/15 11:15:21;;;;;;;2.72;0.50;;;30.70;50.50;;;;;;5067266;28;19912;-77
2022/06/15 11:18:04;;;;;;;5.80;0.88;;;30.70;48.60;;;;;;5057852;28;20383;-77
2022/06/15 11:20:43;;;;;;;2.58;0.50;;;30.70;49.30;;;;;;5070110;28;20372;-77
2022/06/15 11:23:31;;;;;;;5.60;3.28;;;31.00;49.50;;;;;;5053850;28;20043;-77
2022/06/15 11:25:57;;;;;;;3.60;0.60;;;31.60;48.70;;;;;;5071930;28;20023;-78
2022/06/15 11:28:29;;;;;;;4.60;0.70;;;31.80;47.60;;;;;;5070896;28;20028;-77
2022/06/15 11:31:04;;;;;;;2.78;0.63;;;32.10;48.10;;;;;;5035023;28;20047;-77
2022/06/15 11:33:34;;;;;;;2.40;0.50;;;32.40;46.70;;;;;;5038912;28;20028;-77
2022/06/15 11:36:25;;;;;;;2.67;0.68;;;32.60;45.90;;;;;;5042290;28;20473;-77
2022/06/15 11:39:00;;;;;;;2.47;0.50;;;32.80;46.00;;;;;;5055981;28;20439;-77
2022/06/15 11:41:35;;;;;;;3.97;0.68;;;32.90;44.90;;;;;;5038652;28;20032;-77
2022/06/15 11:44:11;;;;;;;2.88;0.57;;;32.90;44.80;;;;;;5044040;28;20028;-75
2022/06/15 11:46:54;;;;;;;4.82;0.73;;;33.10;44.80;;;;;;5061850;28;20032;-76
2022/06/15 11:49:24;;;;;;;3.05;0.70;;;33.40;44.20;;;;;;5073653;28;20040;-76
2022/06/15 11:52:11;;;;;;;2.25;0.50;;;33.40;43.50;;;;;;5038945;28;20051;-75
2022/06/15 11:54:50;;;;;;;1.48;0.50;;;33.40;43.20;;;;;;5070011;28;20027;-75
2022/06/15 11:57:47;;;;;;;3.50;0.57;;;33.60;43.50;;;;;;5073999;28;20035;-76
2022/06/15 12:00:43;;;;;;;1.75;0.35;;;33.80;43.00;;;;;;5070551;28;20019;-76
2022/06/15 12:03:39;;;;;;;2.45;1.10;;;34.20;43.10;;;;;;5060349;28;20024;-75
2022/06/15 12:06:24;;;;;;;3.10;1.20;;;34.70;42.90;;;;;;5073406;28;20400;-75
2022/06/15 12:09:02;;;;;;;2.13;0.63;;;34.80;42.20;;;;;;5061328;28;20032;-77
2022/06/15 12:14:54;;;;;;;2.38;0.68;;;35.00;40.80;;;;;;5075835;28;20024;-75
2022/06/15 12:17:41;;;;;;;2.25;0.60;;;35.40;40.70;;;;;;5071577;28;20039;-76
2022/06/15 12:20:51;;;;;;;2.95;0.50;;;35.60;40.90;;;;;;5041146;28;20487;-76
2022/06/15 12:23:42;;;;;;;2.15;0.40;;;35.70;40.00;;;;;;5028575;28;20035;-75
2022/06/15 12:26:18;;;;;;;2.93;0.57;;;35.80;40.00;;;;;;5057462;28;20131;-76
2022/06/15 12:29:19;;;;;;;2.55;0.50;;;35.90;39.80;;;;;;5075083;28;20020;-75
2022/06/15 12:32:34;;;;;;;3.50;0.50;;;36.30;39.70;;;;;;5057715;28;20028;-75
2022/06/15 12:35:32;;;;;;;2.90;0.60;;;36.60;39.10;;;;;;5041471;28;20041;-76
2022/06/15 12:38:03;;;;;;;2.35;0.52;;;36.80;38.30;;;;;;5061290;28;20040;-75
2022/06/15 12:40:40;;;;;;;1.33;0.45;;;36.90;38.10;;;;;;5069643;28;20143;-75
2022/06/15 12:43:35;;;;;;;3.75;0.50;;;36.70;37.60;;;;;;5073624;28;20021;-75
2022/06/15 12:46:09;;;;;;;2.03;0.50;;;36.80;37.90;;;;;;5094665;28;20154;-75
2022/06/15 12:49:06;;;;;;;2.45;0.40;;;36.90;37.60;;;;;;5075394;28;20028;-74
2022/06/15 12:51:50;;;;;;;2.90;0.50;;;37.30;37.30;;;;;;5071609;28;20027;-75
2022/06/15 12:54:25;;;;;;;2.03;0.45;;;37.60;36.60;;;;;;5075066;28;20024;-76
2022/06/15 12:57:02;;;;;;;8.52;0.73;;;37.80;36.20;;;;;;5060566;28;20043;-75
2022/06/15 12:59:51;;;;;;;3.25;0.88;;;38.00;36.20;;;;;;5070675;28;20047;-76
2022/06/15 13:02:18;;;;;;;2.72;0.70;;;38.30;35.80;;;;;;5071487;28;20027;-76
2022/06/15 13:05:03;;;;;;;5.10;0.60;;;38.50;35.10;;;;;;5070693;28;20020;-76
2022/06/15 13:07:35;;;;;;;3.28;0.55;;;38.50;35.50;;;;;;5079295;28;20047;-77
2022/06/15 13:10:08;;;;;;;1.00;0.40;;;38.60;35.50;;;;;;5045473;28;20032;-77
2022/06/15 13:12:42;;;;;;;1.27;0.40;;;38.50;35.20;;;;;;5059636;28;20039;-76
2022/06/15 13:15:28;;;;;;;1.85;0.50;;;38.40;35.50;;;;;;5051931;28;20387;-77
2022/06/15 13:18:11;;;;;;;2.85;0.70;;;38.70;35.70;;;;;;5047020;28;20032;-78
2022/06/15 13:20:47;;;;;;;2.28;0.60;;;39.30;35.40;;;;;;5039054;28;20028;-78
2022/06/15 13:23:24;;;;;;;2.92;0.70;;;39.50;34.70;;;;;;5072997;28;20387;-80
2022/06/15 13:25:58;;;;;;;2.10;0.50;;;39.60;34.80;;;;;;5079572;28;20526;-79
2022/06/15 13:28:28;;;;;;;1.40;0.40;;;39.70;34.10;;;;;;5077252;28;20383;-78
2022/06/15 13:30:58;;;;;;;1.73;0.82;;;39.70;34.10;;;;;;5071495;28;20052;-77
2022/06/15 13:33:48;;;;;;;1.50;0.60;;;39.80;34.10;;;;;;5043785;28;20025;-78
2022/06/15 13:36:15;;;;;;;2.55;1.50;;;40.00;33.40;;;;;;5071652;28;20499;-77
2022/06/15 13:38:43;;;;;;;2.22;0.50;;;40.30;33.30;;;;;;5042568;28;20035;-77
2022/06/15 13:41:20;;;;;;;1.33;0.50;;;40.50;32.80;;;;;;5037581;28;20020;-77
2022/06/15 13:43:47;;;;;;;4.30;0.50;;;40.90;32.60;;;;;;5071297;28;20463;-76